Time;durP1;ratioP1;P1;durP2;ratioP2;P2;SDS_P1;SDS_P2;PMS_P1;PMS_P2;Temp;Humidity;BMP_temperature;BMP_pressure;BME280_temperature;BME280_humidity;BME280_pressure;Samples;Min_cycle;Max_cycle;Signal;HPM_P1;HPM_P2
2021/09/25 00:00:31;;;;;;;;;14.50;14.50;;;;;23.81;45.30;101305.47;5016687;28;51282;-54
2021/09/25 00:02:58;;;;;;;;;13.00;12.50;;;;;23.80;45.63;101309.31;5024775;28;51701;-52
2021/09/25 00:05:26;;;;;;;;;18.50;14.25;;;;;23.79;45.81;101306.81;5034186;28;50949;-55
2021/09/25 00:07:51;;;;;;;;;12.25;12.25;;;;;23.79;45.74;101312.34;5023183;28;51141;-54
2021/09/25 00:10:17;;;;;;;;;16.50;14.50;;;;;23.77;45.38;101300.66;5016773;28;51361;-51
2021/09/25 00:12:43;;;;;;;;;13.25;12.00;;;;;23.76;45.45;101302.59;5015934;28;51050;-55
2021/09/25 00:15:09;;;;;;;;;16.00;14.50;;;;;23.75;45.67;101308.31;5024501;28;51057;-54
2021/09/25 00:17:34;;;;;;;;;12.00;12.00;;;;;23.74;45.46;101296.41;5025837;28;51422;-54
2021/09/25 00:20:00;;;;;;;;;15.25;14.25;;;;;23.71;45.85;101296.91;5016376;28;51305;-54
2021/09/25 00:22:25;;;;;;;;;13.00;13.00;;;;;23.71;45.43;101305.19;5023329;28;51088;-54
2021/09/25 00:24:50;;;;;;;;;12.25;11.25;;;;;23.71;45.48;101310.72;5028570;28;51116;-55
2021/09/25 00:27:16;;;;;;;;;13.25;11.25;;;;;23.71;45.67;101307.13;5029445;28;51033;-55
2021/09/25 00:29:41;;;;;;;;;12.25;12.25;;;;;23.68;45.72;101288.22;5033050;28;51793;-55
2021/09/25 00:32:06;;;;;;;;;10.25;10.25;;;;;23.68;45.64;101304.81;5033755;28;51804;-55
2021/09/25 00:34:32;;;;;;;;;14.50;14.25;;;;;23.68;45.36;101313.13;5022930;28;50963;-54
2021/09/25 00:36:57;;;;;;;;;11.00;11.00;;;;;23.66;45.77;101307.81;5029320;28;51222;-55
2021/09/25 00:39:23;;;;;;;;;13.75;12.25;;;;;23.66;45.69;101305.06;5021995;28;51211;-55
2021/09/25 00:41:48;;;;;;;;;11.00;11.00;;;;;23.64;45.44;101304.44;5033840;28;51017;-54
2021/09/25 00:44:14;;;;;;;;;13.25;12.75;;;;;23.63;46.29;101302.75;5030476;28;51082;-54
2021/09/25 00:46:39;;;;;;;;;13.25;9.00;;;;;23.62;45.84;101309.34;5015304;28;51183;-55
2021/09/25 00:49:04;;;;;;;;;9.25;9.25;;;;;23.61;46.01;101310.44;5031146;28;50914;-51
2021/09/25 00:51:30;;;;;;;;;11.50;11.00;;;;;23.60;46.08;101309.59;5027964;28;51935;-56
2021/09/25 00:53:55;;;;;;;;;11.00;10.00;;;;;23.58;45.60;101306.22;5014774;28;50983;-55
2021/09/25 00:56:24;;;;;;;;;12.75;12.75;;;;;23.57;45.37;101301.72;5016099;28;51114;-52
2021/09/25 00:58:50;;;;;;;;;9.75;9.25;;;;;23.56;46.11;101299.19;5028937;28;51874;-52
2021/09/25 01:01:16;;;;;;;;;10.25;8.25;;;;;23.56;45.36;101299.19;5032368;28;51126;-54
2021/09/25 01:03:41;;;;;;;;;12.75;10.50;;;;;23.56;45.75;101307.50;5024585;28;50942;-54
2021/09/25 01:06:07;;;;;;;;;13.50;10.00;;;;;23.54;45.79;101299.41;5030320;28;50965;-53
2021/09/25 01:08:32;;;;;;;;;15.00;14.00;;;;;23.53;45.94;101303.25;5026685;28;50928;-54
2021/09/25 01:10:58;;;;;;;;;7.75;7.25;;;;;23.53;45.90;101307.94;5033491;28;51002;-53
2021/09/25 01:13:24;;;;;;;;;9.75;9.00;;;;;23.51;46.09;101304.56;5034127;28;50957;-55
2021/09/25 01:15:50;;;;;;;;;11.75;11.00;;;;;23.51;45.63;101299.03;5032810;28;51186;-56
2021/09/25 01:18:17;;;;;;;;;10.25;10.25;;;;;23.49;45.67;101290.97;5032558;28;51147;-55
2021/09/25 01:20:43;;;;;;;;;11.00;10.25;;;;;23.50;46.00;101294.59;5036901;28;51789;-55
2021/09/25 01:23:08;;;;;;;;;10.00;10.00;;;;;23.47;45.70;101293.13;5036899;28;51116;-52
2021/09/25 01:25:34;;;;;;;;;12.25;10.00;;;;;23.47;45.98;101295.91;5028386;28;51707;-55
2021/09/25 01:28:01;;;;;;;;;10.25;10.25;;;;;23.47;45.61;101290.38;5033453;28;51149;-55
2021/09/25 01:30:26;;;;;;;;;9.00;8.50;;;;;23.46;45.87;101288.69;5033508;28;51784;-54
2021/09/25 01:32:53;;;;;;;;;9.75;9.50;;;;;23.46;45.79;101285.06;5026158;28;51165;-55
2021/09/25 01:35:22;;;;;;;;;9.50;9.50;;;;;23.45;45.69;101277.88;5030794;28;51168;-55
2021/09/25 01:37:51;;;;;;;;;11.00;10.25;;;;;23.45;46.15;101287.00;5026999;28;51167;-55
2021/09/25 01:40:18;;;;;;;;;11.75;11.00;;;;;23.44;45.98;101276.16;5031338;28;51028;-55
2021/09/25 01:42:44;;;;;;;;;12.25;10.00;;;;;23.45;46.22;101275.09;5030377;28;51111;-54
2021/09/25 01:45:11;;;;;;;;;9.00;8.00;;;;;23.43;45.99;101271.69;5035746;28;51090;-54
2021/09/25 01:47:39;;;;;;;;;9.00;9.00;;;;;23.42;46.12;101270.84;5031081;28;51054;-55
2021/09/25 01:50:08;;;;;;;;;14.50;11.00;;;;;23.43;45.94;101274.47;5017528;28;51896;-52
2021/09/25 01:52:34;;;;;;;;;12.25;11.25;;;;;23.41;46.16;101271.94;5032992;28;51442;-50
2021/09/25 01:54:59;;;;;;;;;10.00;9.25;;;;;23.40;46.06;101269.41;5020718;28;50992;-54
2021/09/25 01:57:25;;;;;;;;;9.25;9.25;;;;;23.39;46.14;101268.56;5028060;28;51091;-52
2021/09/25 01:59:51;;;;;;;;;12.00;10.25;;;;;23.39;46.30;101264.94;5036283;28;51697;-55
2021/09/25 02:02:17;;;;;;;;;11.50;10.00;;;;;23.38;45.74;101272.41;5035356;28;51128;-53
2021/09/25 02:04:47;;;;;;;;;14.50;11.25;;;;;23.38;45.89;101271.56;5035547;28;51358;-54
2021/09/25 02:07:14;;;;;;;;;11.75;9.75;;;;;23.37;46.06;101258.81;5022088;28;51322;-54
2021/09/25 02:09:39;;;;;;;;;5.75;4.75;;;;;23.36;46.36;101257.97;5036445;28;51712;-53
2021/09/25 02:12:05;;;;;;;;;10.50;10.50;;;;;23.35;46.16;101248.00;5020284;28;51043;-55
2021/09/25 02:14:31;;;;;;;;;10.00;8.50;;;;;23.34;45.84;101249.03;5024635;28;51088;-53
2021/09/25 02:16:56;;;;;;;;;11.00;10.00;;;;;23.33;46.34;101242.66;5020742;28;50970;-55
2021/09/25 02:19:21;;;;;;;;;12.50;9.25;;;;;23.33;45.80;101247.34;5036287;28;51976;-55
2021/09/25 02:21:48;;;;;;;;;11.50;10.00;;;;;23.33;46.21;101247.34;5035596;28;51017;-55
2021/09/25 02:24:13;;;;;;;;;12.00;9.50;;;;;23.30;46.20;101256.97;5020817;28;51208;-54
2021/09/25 02:26:39;;;;;;;;;10.75;10.25;;;;;23.30;46.37;101250.59;5027799;28;51110;-55
2021/09/25 02:29:04;;;;;;;;;12.25;11.25;;;;;23.30;45.91;101247.84;5016963;28;51176;-55
2021/09/25 02:31:30;;;;;;;;;15.50;14.50;;;;;23.29;46.31;101248.91;5016895;28;51260;-53
2021/09/25 02:33:56;;;;;;;;;16.75;12.25;;;;;23.28;46.48;101256.34;5021896;28;51306;-55
2021/09/25 02:36:21;;;;;;;;;13.00;13.00;;;;;23.28;45.94;101250.00;5034415;28;51069;-54
2021/09/25 02:38:46;;;;;;;;;15.00;14.75;;;;;23.26;46.29;101250.22;5032322;28;51166;-53
2021/09/25 02:41:12;;;;;;;;;19.00;15.75;;;;;23.27;46.22;101253.84;5023304;28;50924;-53
2021/09/25 02:43:37;;;;;;;;;16.25;16.25;;;;;23.26;46.12;101244.69;5023202;28;51217;-52
2021/09/25 02:46:03;;;;;;;;;19.50;18.25;;;;;23.26;46.51;101252.16;5035035;28;51092;-53
2021/09/25 02:48:28;;;;;;;;;19.75;18.25;;;;;23.24;46.37;101238.56;5028944;28;51928;-54
2021/09/25 02:50:53;;;;;;;;;21.00;19.00;;;;;23.24;46.20;101243.22;5035673;28;50958;-55
2021/09/25 02:53:19;;;;;;;;;23.00;22.50;;;;;23.22;46.27;101235.16;5027723;28;51081;-54
2021/09/25 02:55:44;;;;;;;;;20.75;18.25;;;;;23.22;46.54;101231.56;5029201;28;51314;-55
2021/09/25 02:58:09;;;;;;;;;25.00;21.50;;;;;23.22;46.36;101231.56;5024547;28;51772;-52
2021/09/25 03:00:35;;;;;;;;;21.50;19.25;;;;;23.22;46.14;101237.06;5021650;28;51666;-54
2021/09/25 03:03:02;;;;;;;;;25.50;24.00;;;;;23.21;46.64;101229.88;5021408;28;51145;-52
2021/09/25 03:05:28;;;;;;;;;28.00;25.00;;;;;23.20;46.71;101229.03;5034418;28;51073;-55
2021/09/25 03:07:53;;;;;;;;;22.75;22.00;;;;;23.19;46.01;101223.72;5025938;28;51940;-55
2021/09/25 03:10:19;;;;;;;;;22.75;21.75;;;;;23.20;46.73;101233.72;5029239;28;51140;-55
2021/09/25 03:12:44;;;;;;;;;23.00;20.50;;;;;23.18;46.30;101233.94;5036069;28;51128;-55
2021/09/25 03:15:11;;;;;;;;;25.75;20.50;;;;;23.18;46.74;101235.88;5031679;28;51359;-53
2021/09/25 03:17:36;;;;;;;;;20.00;18.75;;;;;23.18;46.63;101235.88;5029606;28;51135;-53
2021/09/25 03:20:04;;;;;;;;;23.00;19.25;;;;;23.17;46.44;101237.78;5022675;28;51117;-55
2021/09/25 03:22:29;;;;;;;;;27.50;21.00;;;;;23.16;46.08;101235.25;5019214;28;51027;-54
2021/09/25 03:24:55;;;;;;;;;20.50;19.50;;;;;23.15;46.62;101228.88;5026130;28;51285;-51
2021/09/25 03:27:20;;;;;;;;;21.00;18.00;;;;;23.15;46.18;101225.28;5027672;28;51949;-53
2021/09/25 03:29:46;;;;;;;;;19.00;17.25;;;;;23.14;46.28;101229.97;5035365;28;50954;-54
2021/09/25 03:32:11;;;;;;;;;18.00;18.00;;;;;23.14;46.14;101226.38;5032338;28;50987;-55
2021/09/25 03:34:36;;;;;;;;;22.50;21.00;;;;;23.13;46.24;101225.50;5024295;28;51028;-54
2021/09/25 03:37:02;;;;;;;;;16.75;15.25;;;;;23.13;46.68;101224.66;5021135;28;51792;-55
2021/09/25 03:39:27;;;;;;;;;16.25;15.25;;;;;23.12;46.66;101222.97;5015664;28;51076;-54
2021/09/25 03:41:53;;;;;;;;;16.50;16.50;;;;;23.12;46.80;101222.97;5016211;28;51114;-54
2021/09/25 03:44:18;;;;;;;;;17.00;16.00;;;;;23.11;46.52;101212.97;5018821;28;51213;-55
2021/09/25 03:46:43;;;;;;;;;18.25;16.00;;;;;23.11;46.42;101218.50;5025143;28;51088;-54
2021/09/25 03:49:08;;;;;;;;;17.50;15.75;;;;;;;;5018615;28;51036;-51
2021/09/25 03:51:34;;;;;;;;;18.33;15.33;;;;;;;;5032252;28;51226;-54
2021/09/25 03:53:59;;;;;;;;;18.00;15.75;;;;;23.08;46.70;101216.22;5025073;28;51952;-54
2021/09/25 03:56:25;;;;;;;;;18.75;18.75;;;;;23.08;46.54;101216.22;5027236;28;51203;-54
2021/09/25 03:58:50;;;;;;;;;21.25;17.75;;;;;23.08;46.52;101216.22;5019529;28;51146;-55
2021/09/25 04:01:16;;;;;;;;;17.25;15.25;;;;;23.07;46.36;101209.84;5017002;28;51356;-54
2021/09/25 04:03:42;;;;;;;;;17.25;15.00;;;;;23.06;46.27;101207.31;5024041;28;51259;-54
2021/09/25 04:06:07;;;;;;;;;17.00;14.00;;;;;23.04;46.21;101219.44;5015242;28;51760;-55
2021/09/25 04:08:33;;;;;;;;;15.25;14.50;;;;;23.06;46.42;101215.63;5027654;28;51111;-55
2021/09/25 04:10:59;;;;;;;;;14.25;13.75;;;;;23.04;47.12;101213.09;5034951;28;50943;-55
2021/09/25 04:13:24;;;;;;;;;17.50;16.00;;;;;23.04;46.73;101216.69;5027036;28;52394;-54
2021/09/25 04:15:50;;;;;;;;;14.00;13.00;;;;;23.03;46.08;101219.66;5015175;28;52418;-53
2021/09/25 04:18:16;;;;;;;;;17.50;14.75;;;;;23.02;46.17;101224.34;5028021;28;51124;-54
2021/09/25 04:20:41;;;;;;;;;14.75;13.50;;;;;23.01;46.44;101225.41;5031908;28;51128;-55
2021/09/25 04:23:07;;;;;;;;;15.75;14.00;;;;;23.02;46.67;101224.34;5025244;28;51186;-55
2021/09/25 04:25:32;;;;;;;;;16.25;15.00;;;;;23.00;46.67;101220.97;5034616;28;51983;-52
2021/09/25 04:28:00;;;;;;;;;19.75;14.50;;;;;23.01;46.81;101216.28;5026857;28;51140;-53
2021/09/25 04:30:25;;;;;;;;;16.75;15.25;;;;;22.99;46.73;101210.16;5033148;28;51249;-55
2021/09/25 04:32:50;;;;;;;;;19.25;16.25;;;;;22.98;46.22;101206.53;5022078;28;51868;-54
2021/09/25 04:35:16;;;;;;;;;16.75;14.50;;;;;22.98;46.20;101211.22;5015281;28;51815;-54
2021/09/25 04:37:41;;;;;;;;;14.00;13.50;;;;;22.97;46.77;101204.84;5022088;28;51161;-55
2021/09/25 04:40:07;;;;;;;;;14.00;12.00;;;;;22.97;46.52;101212.31;5034493;28;51680;-54
2021/09/25 04:42:33;;;;;;;;;13.50;12.50;;;;;22.96;46.59;101205.09;5034193;28;51076;-54
2021/09/25 04:44:58;;;;;;;;;19.00;15.75;;;;;22.95;46.68;101204.25;5030453;28;51742;-54
2021/09/25 04:47:23;;;;;;;;;14.75;13.00;;;;;22.94;46.75;101204.50;5026193;28;51026;-53
2021/09/25 04:49:49;;;;;;;;;14.25;12.50;;;;;22.94;46.57;101205.34;5026770;28;51387;-55
2021/09/25 04:52:14;;;;;;;;;17.50;16.75;;;;;22.93;46.28;101203.66;5030705;28;50957;-53
2021/09/25 04:54:40;;;;;;;;;16.75;12.50;;;;;22.93;46.38;101206.41;5037062;28;51181;-55
2021/09/25 04:57:05;;;;;;;;;14.75;12.50;;;;;22.93;46.53;101206.41;5029731;28;51180;-55
2021/09/25 04:59:30;;;;;;;;;13.75;12.25;;;;;22.91;46.48;101197.47;5024680;28;50974;-54
2021/09/25 05:01:55;;;;;;;;;16.25;13.50;;;;;22.91;46.11;101194.72;5019588;28;50994;-54
2021/09/25 05:04:21;;;;;;;;;15.00;13.25;;;;;22.91;46.27;101194.72;5031332;28;52677;-53
2021/09/25 05:06:47;;;;;;;;;15.00;13.75;;;;;22.90;46.17;101201.31;5025450;28;51143;-55
2021/09/25 05:09:13;;;;;;;;;18.25;17.50;;;;;22.89;46.72;101202.41;5024319;28;51035;-53
2021/09/25 05:11:38;;;;;;;;;14.25;13.50;;;;;22.88;46.56;101206.25;5018525;28;51395;-55
2021/09/25 05:14:04;;;;;;;;;15.75;15.75;;;;;22.89;46.75;101207.09;5028284;28;51899;-54
2021/09/25 05:16:29;;;;;;;;;16.50;14.00;;;;;22.87;46.70;101210.06;5023583;28;50982;-54
2021/09/25 05:18:55;;;;;;;;;17.75;15.75;;;;;22.88;46.44;101208.16;5027202;28;51120;-54
2021/09/25 05:21:22;;;;;;;;;21.00;19.25;;;;;22.86;46.50;101204.78;5030014;28;51065;-54
2021/09/25 05:23:47;;;;;;;;;17.25;15.75;;;;;22.86;46.67;101211.16;5027407;28;53811;-54
2021/09/25 05:26:12;;;;;;;;;16.50;16.50;;;;;22.86;46.30;101202.88;5040322;28;50952;-54
2021/09/25 05:28:38;;;;;;;;;18.25;16.75;;;;;22.84;46.45;101205.03;5024166;28;51291;-54
2021/09/25 05:31:03;;;;;;;;;19.50;16.00;;;;;22.84;46.26;101196.72;5026367;28;51146;-54
2021/09/25 05:33:28;;;;;;;;;20.25;17.25;;;;;22.83;46.17;101192.25;5023659;28;51354;-53
2021/09/25 05:35:54;;;;;;;;;14.00;14.00;;;;;22.82;46.69;101190.53;5034463;28;51056;-50
2021/09/25 05:38:19;;;;;;;;;19.00;17.25;;;;;22.84;46.75;101187.59;5026057;28;51310;-55
2021/09/25 05:40:44;;;;;;;;;20.50;17.00;;;;;22.82;46.19;101198.81;5025654;28;51101;-54
2021/09/25 05:43:10;;;;;;;;;20.00;16.75;;;;;22.81;46.08;101199.91;5030823;28;52034;-54
2021/09/25 05:45:35;;;;;;;;;19.50;17.75;;;;;22.81;46.18;101199.06;5017652;28;50927;-55
2021/09/25 05:48:01;;;;;;;;;19.50;17.50;;;;;22.80;46.74;101195.44;5026106;28;51180;-55
2021/09/25 05:50:26;;;;;;;;;20.75;19.75;;;;;22.80;46.34;101198.22;5036613;28;51204;-53
2021/09/25 05:52:51;;;;;;;;;21.75;16.50;;;;;22.79;46.52;101191.00;5031862;28;51149;-54
2021/09/25 05:55:19;;;;;;;;;24.25;20.75;;;;;22.79;46.49;101192.94;5033072;28;51237;-54
2021/09/25 05:57:44;;;;;;;;;24.75;18.50;;;;;22.78;46.26;101194.84;5020335;28;51173;-55
2021/09/25 06:00:11;;;;;;;;;20.00;18.75;;;;;22.77;46.51;101199.53;5023478;28;51090;-53
2021/09/25 06:02:38;;;;;;;;;19.25;18.00;;;;;22.76;46.80;101192.31;5018685;28;53003;-54
2021/09/25 06:05:06;;;;;;;;;22.75;20.00;;;;;22.77;46.43;101204.22;5017456;28;51243;-55
2021/09/25 06:07:31;;;;;;;;;20.25;20.25;;;;;22.75;46.57;101209.97;5028528;28;51607;-52
2021/09/25 06:09:56;;;;;;;;;21.50;19.25;;;;;22.74;46.82;101210.19;5027311;28;51198;-53
2021/09/25 06:12:22;;;;;;;;;22.50;19.25;;;;;22.73;46.34;101209.34;5036492;28;51976;-55
2021/09/25 06:14:48;;;;;;;;;22.50;17.75;;;;;22.73;46.52;101209.34;5033226;28;51176;-55
2021/09/25 06:17:14;;;;;;;;;21.75;17.50;;;;;22.73;46.54;101209.34;5019464;28;51132;-53
2021/09/25 06:19:39;;;;;;;;;17.50;16.25;;;;;22.72;46.78;101218.72;5021893;28;51303;-55
2021/09/25 06:22:04;;;;;;;;;20.50;17.25;;;;;22.73;46.25;101205.75;5020123;28;51706;-54
2021/09/25 06:24:30;;;;;;;;;16.00;15.25;;;;;22.72;46.87;101201.31;5021900;28;51272;-54
2021/09/25 06:26:55;;;;;;;;;16.25;15.50;;;;;22.72;46.61;101207.66;5026929;28;51308;-54
2021/09/25 06:29:20;;;;;;;;;20.00;18.00;;;;;22.72;47.31;101212.34;5033322;28;51213;-55
2021/09/25 06:31:46;;;;;;;;;17.00;15.50;;;;;22.74;46.93;101201.91;5036273;28;51902;-51
2021/09/25 06:34:11;;;;;;;;;14.25;13.75;;;;;22.74;47.06;101212.97;5024520;28;51049;-54
2021/09/25 06:36:40;;;;;;;;;14.00;12.75;;;;;22.73;46.79;101203.84;5026518;28;51047;-54
2021/09/25 06:39:06;;;;;;;;;12.75;11.75;;;;;22.74;47.22;101210.19;5031299;28;51431;-55
2021/09/25 06:41:31;;;;;;;;;20.50;15.25;;;;;22.73;46.80;101206.59;5035144;28;51179;-54
2021/09/25 06:43:56;;;;;;;;;15.50;10.75;;;;;22.74;47.32;101207.44;5031347;28;51077;-55
2021/09/25 06:46:22;;;;;;;;;13.25;13.25;;;;;22.74;47.22;101201.91;5021649;28;51192;-55
2021/09/25 06:48:49;;;;;;;;;12.00;11.00;;;;;22.74;47.10;101193.63;5026005;28;51375;-55
2021/09/25 06:51:16;;;;;;;;;15.00;13.50;;;;;22.73;47.04;101191.94;5020718;28;52720;-55
2021/09/25 06:53:42;;;;;;;;;12.75;10.50;;;;;22.73;47.37;101192.78;5026080;28;51092;-52
2021/09/25 06:56:07;;;;;;;;;12.50;12.00;;;;;22.73;46.84;101189.19;5030084;28;51204;-55
2021/09/25 06:58:33;;;;;;;;;12.25;11.50;;;;;22.73;47.19;101189.19;5024640;28;51236;-55
2021/09/25 07:00:58;;;;;;;;;10.00;9.00;;;;;22.74;47.02;101188.09;5018606;28;52146;-54
2021/09/25 07:03:23;;;;;;;;;11.50;11.50;;;;;22.73;47.13;101186.41;5032655;28;51049;-59
2021/09/25 07:05:49;;;;;;;;;13.50;10.00;;;;;22.74;47.46;101182.59;5028115;28;51597;-54
2021/09/25 07:08:14;;;;;;;;;12.00;11.25;;;;;22.74;47.32;101186.19;5029101;28;51333;-54
2021/09/25 07:10:39;;;;;;;;;17.75;12.25;;;;;22.74;47.69;101177.06;5035000;28;51748;-54
2021/09/25 07:13:05;;;;;;;;;12.00;12.00;;;;;22.75;47.33;101173.22;5020472;28;51102;-54
2021/09/25 07:15:31;;;;;;;;;13.50;12.25;;;;;22.75;47.39;101174.06;5033621;28;51176;-53
2021/09/25 07:17:57;;;;;;;;;13.50;13.50;;;;;22.75;47.28;101173.22;5029817;28;51186;-53
2021/09/25 07:20:24;;;;;;;;;13.00;12.00;;;;;22.75;47.77;101178.75;5020689;28;52060;-51
2021/09/25 07:22:52;;;;;;;;;11.50;9.25;;;;;22.76;47.89;101183.19;5022936;28;51423;-53
2021/09/25 07:25:19;;;;;;;;;13.75;12.75;;;;;22.76;47.37;101183.19;5016222;28;51070;-52
2021/09/25 07:27:45;;;;;;;;;10.00;9.75;;;;;22.77;47.49;101182.94;5035715;28;51389;-54
2021/09/25 07:30:11;;;;;;;;;13.50;11.50;;;;;22.77;47.50;101177.44;5019974;28;51070;-53
2021/09/25 07:32:36;;;;;;;;;11.25;9.75;;;;;22.79;47.74;101188.25;5025077;28;51809;-53
2021/09/25 07:35:02;;;;;;;;;13.25;11.75;;;;;22.80;47.85;101178.88;5027729;28;51163;-54
2021/09/25 07:37:27;;;;;;;;;13.00;12.00;;;;;22.80;48.02;101170.59;5028602;28;51217;-51
2021/09/25 07:39:53;;;;;;;;;9.00;9.00;;;;;22.81;48.20;101175.03;5028394;28;52814;-52
2021/09/25 07:42:21;;;;;;;;;10.75;10.50;;;;;22.83;48.39;101174.84;5019663;28;51080;-52
2021/09/25 07:44:47;;;;;;;;;12.00;9.75;;;;;22.83;48.46;101170.16;5022660;28;51737;-53
2021/09/25 07:47:13;;;;;;;;;11.00;11.00;;;;;22.86;48.67;101179.94;5024301;28;51712;-55
2021/09/25 07:49:39;;;;;;;;;9.75;9.25;;;;;22.86;48.07;101175.25;5023564;28;51622;-55
2021/09/25 07:52:04;;;;;;;;;11.50;11.25;;;;;22.88;48.51;101175.84;5022051;28;51139;-55
2021/09/25 07:54:30;;;;;;;;;15.00;13.00;;;;;22.89;48.11;101166.50;5020066;28;51694;-52
2021/09/25 07:56:55;;;;;;;;;13.75;12.25;;;;;22.92;48.25;101167.94;5023262;28;51593;-54
2021/09/25 07:59:21;;;;;;;;;11.00;10.75;;;;;22.92;48.59;101166.00;5023869;28;51956;-55
2021/09/25 08:01:47;;;;;;;;;13.00;12.75;;;;;22.93;48.92;101167.72;5026214;28;52243;-55
2021/09/25 08:04:13;;;;;;;;;13.00;12.50;;;;;22.95;48.81;101173.03;5028309;28;51293;-54
2021/09/25 08:06:38;;;;;;;;;20.25;15.50;;;;;22.97;48.74;101168.09;5032477;28;51076;-54
2021/09/25 08:09:03;;;;;;;;;13.00;13.00;;;;;22.98;48.04;101165.09;5025339;28;52128;-53
2021/09/25 08:11:29;;;;;;;;;16.00;15.00;;;;;23.01;48.29;101174.84;5018480;28;51161;-55
2021/09/25 08:13:54;;;;;;;;;13.75;13.50;;;;;23.03;48.26;101161.63;5028812;28;51119;-54
2021/09/25 08:16:19;;;;;;;;;14.75;14.75;;;;;23.04;48.31;101158.66;5021859;28;51290;-53
2021/09/25 08:18:45;;;;;;;;;13.00;11.75;;;;;23.08;48.30;101163.72;5020891;28;51179;-55
2021/09/25 08:21:10;;;;;;;;;10.50;10.50;;;;;23.10;48.28;101161.56;5027527;28;51143;-54
2021/09/25 08:23:35;;;;;;;;;17.50;15.00;;;;;23.12;48.28;101163.00;5026047;28;51144;-55
2021/09/25 08:26:02;;;;;;;;;17.50;15.25;;;;;23.14;47.69;101165.56;5029583;28;51189;-56
2021/09/25 08:28:27;;;;;;;;;19.00;18.50;;;;;23.15;47.84;101157.03;5033545;28;51983;-56
2021/09/25 08:30:52;;;;;;;;;21.25;17.50;;;;;23.17;47.76;101162.31;5031658;28;51105;-53
2021/09/25 08:33:18;;;;;;;;;14.00;14.00;;;;;23.18;47.82;101167.63;5027428;28;51039;-54
2021/09/25 08:35:43;;;;;;;;;15.75;14.50;;;;;23.20;47.69;101168.22;5025090;28;51275;-53
2021/09/25 08:38:08;;;;;;;;;15.25;15.00;;;;;23.23;47.79;101164.97;5029454;28;52029;-56
2021/09/25 08:40:34;;;;;;;;;21.25;17.25;;;;;23.26;47.70;101163.69;5030133;28;51104;-52
2021/09/25 08:43:00;;;;;;;;;20.25;16.00;;;;;23.28;47.88;101161.53;5028815;28;51021;-56
2021/09/25 08:45:25;;;;;;;;;18.50;15.00;;;;;23.31;47.98;101163.81;5021125;28;51131;-55
2021/09/25 08:47:54;;;;;;;;;22.50;19.25;;;;;23.32;48.12;101162.75;5025504;28;51465;-52
2021/09/25 08:50:19;;;;;;;;;16.50;16.25;;;;;23.33;47.60;101150.59;5026474;28;51767;-52
2021/09/25 08:52:45;;;;;;;;;19.00;17.50;;;;;23.34;48.02;101152.28;5024505;28;51166;-54
2021/09/25 08:55:12;;;;;;;;;21.25;18.25;;;;;23.36;48.21;101149.31;5031528;28;51468;-54
2021/09/25 08:57:39;;;;;;;;;17.00;17.00;;;;;23.37;48.35;101154.59;5028918;28;51961;-55
2021/09/25 09:00:29;;;;;;;;;21.00;20.50;;;;;23.39;48.55;101149.69;5028301;28;51466;-55
2021/09/25 09:02:55;;;;;;;;;17.25;14.25;;;;;23.40;48.29;101148.59;5028935;28;51161;-55
2021/09/25 09:05:28;;;;;;;;;17.75;16.75;;;;;23.42;48.28;101157.50;5023785;28;51304;-56
2021/09/25 09:07:56;;;;;;;;;20.50;18.00;;;;;23.44;47.91;101152.56;5024345;28;52656;-57
2021/09/25 09:10:26;;;;;;;;;20.25;16.25;;;;;23.47;48.27;101159.59;5018091;28;51182;-55
2021/09/25 09:12:52;;;;;;;;;20.75;18.50;;;;;23.49;47.70;101158.25;5022859;28;51415;-50
2021/09/25 09:15:17;;;;;;;;;17.50;15.00;;;;;23.52;47.83;101145.88;5024813;28;51917;-56
2021/09/25 09:17:43;;;;;;;;;19.50;18.00;;;;;23.55;47.67;101150.94;5022676;28;53140;-53
2021/09/25 09:20:11;;;;;;;;;21.50;19.50;;;;;23.56;47.86;101159.00;5023154;28;52220;-53
2021/09/25 09:22:37;;;;;;;;;20.75;18.75;;;;;23.58;47.56;101156.88;5022552;28;51219;-53
2021/09/25 09:25:06;;;;;;;;;21.00;19.25;;;;;23.62;47.56;101154.47;5024893;28;51202;-56
2021/09/25 09:27:33;;;;;;;;;21.50;19.00;;;;;23.69;47.51;101168.22;5036779;28;53006;-55
2021/09/25 09:30:09;;;;;;;;;21.00;16.50;;;;;23.76;47.46;101163.41;5027637;28;51741;-55
2021/09/25 09:32:45;;;;;;;;;19.50;16.00;;;;;23.79;47.41;101161.03;5026146;28;51198;-55
2021/09/25 09:35:13;;;;;;;;;24.00;16.75;;;;;23.81;47.50;101161.63;5023694;28;51135;-54
2021/09/25 09:37:39;;;;;;;;;20.25;18.00;;;;;23.83;47.20;101164.16;5025079;28;53349;-56
2021/09/25 09:40:08;;;;;;;;;19.25;16.50;;;;;23.85;46.89;101153.69;5028954;28;51017;-56
2021/09/25 09:42:46;;;;;;;;;17.25;16.00;;;;;23.85;46.77;101150.91;5027833;28;51281;-54
2021/09/25 09:45:23;;;;;;;;;23.75;18.00;;;;;23.87;47.31;101146.03;5026512;28;51771;-56
2021/09/25 09:47:48;;;;;;;;;24.25;20.50;;;;;23.92;47.32;101151.66;5027027;28;51014;-54
2021/09/25 09:50:14;;;;;;;;;27.75;21.75;;;;;23.96;47.25;101140.97;5027247;28;51110;-60
2021/09/25 09:52:40;;;;;;;;;22.50;19.50;;;;;24.02;47.17;101131.72;5021666;28;51900;-65
2021/09/25 09:55:09;;;;;;;;;23.50;20.50;;;;;24.10;47.10;101131.38;5024331;28;52044;-64
2021/09/25 09:57:34;;;;;;;;;21.75;21.00;;;;;24.19;47.43;101129.94;5026664;28;51188;-64
2021/09/25 10:00:00;;;;;;;;;26.25;21.00;;;;;24.21;47.15;101132.44;5026586;28;52670;-65
2021/09/25 10:02:26;;;;;;;;;21.25;20.00;;;;;24.22;46.95;101123.06;5025870;28;52503;-66
2021/09/25 10:04:51;;;;;;;;;22.25;22.25;;;;;24.22;47.06;101131.38;5024938;28;51294;-64
2021/09/25 10:07:18;;;;;;;;;20.50;18.75;;;;;24.21;47.12;101138.84;5022021;28;52513;-65
2021/09/25 10:09:43;;;;;;;;;18.75;17.25;;;;;24.22;46.77;101145.22;5031588;28;51140;-61
2021/09/25 10:12:14;;;;;;;;;14.75;14.75;;;;;24.21;46.67;101138.84;5021583;28;51093;-61
2021/09/25 10:14:46;;;;;;;;;18.25;17.25;;;;;24.21;46.85;101133.28;5022968;28;51001;-62
2021/09/25 10:17:13;;;;;;;;;25.00;22.50;;;;;24.20;46.57;101131.59;5021080;28;53122;-61
2021/09/25 10:19:40;;;;;;;;;20.50;19.00;;;;;24.19;46.51;101130.78;5028661;28;52147;-61
2021/09/25 10:22:11;;;;;;;;;21.75;19.50;;;;;24.21;46.65;101129.69;5021215;28;51145;-60
2021/09/25 10:24:42;;;;;;;;;21.00;19.00;;;;;24.18;46.38;101129.09;5031132;28;51132;-60
2021/09/25 10:27:08;;;;;;;;;15.75;15.00;;;;;24.20;46.47;101137.16;5020116;28;52056;-61
2021/09/25 10:29:34;;;;;;;;;14.75;14.50;;;;;24.21;45.90;101133.28;5029366;28;51224;-60
2021/09/25 10:32:20;;;;;;;;;22.50;17.00;;;;;24.19;45.72;101138.22;5020362;28;51520;-61
2021/09/25 10:35:15;;;;;;;;;23.50;20.00;;;;;24.21;45.57;101138.00;5023493;28;51152;-61
2021/09/25 10:37:43;;;;;;;;;21.00;19.25;;;;;24.21;45.47;101135.22;5023284;28;52349;-61
2021/09/25 10:40:30;;;;;;;;;22.00;18.00;;;;;24.19;45.45;101141.00;5026514;28;51401;-60
2021/09/25 10:43:01;;;;;;;;;21.50;17.75;;;;;24.19;45.47;101136.31;5029644;28;51351;-60
2021/09/25 10:45:35;;;;;;;;;22.25;20.00;;;;;24.20;45.76;101131.59;5032507;28;51522;-61
2021/09/25 10:48:23;;;;;;;;;19.75;17.00;;;;;24.21;45.80;101125.00;5027537;28;52345;-62
2021/09/25 10:50:55;;;;;;;;;21.00;20.00;;;;;24.21;46.16;101124.16;5022131;28;51203;-61
2021/09/25 10:53:23;;;;;;;;;19.00;18.50;;;;;24.21;45.82;101110.31;5020141;28;51106;-61
2021/09/25 10:55:51;;;;;;;;;22.75;20.00;;;;;24.23;45.68;101111.75;5016257;28;51354;-60
2021/09/25 10:58:28;;;;;;;;;20.00;17.00;;;;;24.24;45.51;101098.75;5028732;28;52253;-60
2021/09/25 11:01:11;;;;;;;;;21.00;20.75;;;;;24.25;45.53;101104.03;5016994;28;51436;-60
2021/09/25 11:06:19;;;;;;;;;21.00;19.50;;;;;24.28;45.55;101099.94;5026912;28;51510;-63
2021/09/25 11:08:49;;;;;;;;;20.25;17.25;;;;;24.28;45.89;101091.63;5026133;28;52031;-60
2021/09/25 11:11:16;;;;;;;;;21.00;19.75;;;;;24.29;45.79;101090.56;5020403;28;51505;-61